createdAt,value
2019-02-28T00:00:52.989Z,63.63
2019-02-28T00:03:57.958Z,63.74
2019-02-28T00:06:58.832Z,63.83
2019-02-28T00:10:00.714Z,64.04
2019-02-28T00:13:02.624Z,64.09
2019-02-28T00:16:04.606Z,64.13
2019-02-28T00:19:07.272Z,64.11
2019-02-28T00:22:11.357Z,64.13
2019-02-28T00:25:12.951Z,64.14
2019-02-28T00:28:14.898Z,64.06
2019-02-28T00:31:16.897Z,63.91
2019-02-28T00:34:18.804Z,64.12
2019-02-28T00:37:20.722Z,64.09
2019-02-28T00:40:22.610Z,63.88
2019-02-28T00:43:25.315Z,63.72
2019-02-28T00:46:27.974Z,63.72
2019-02-28T00:49:30.451Z,63.67
2019-02-28T00:52:35.511Z,63.65
2019-02-28T00:55:36.163Z,63.66
2019-02-28T00:58:38.062Z,63.83
2019-02-28T01:01:39.954Z,63.85
2019-02-28T01:04:41.852Z,63.94
2019-02-28T01:07:43.888Z,64.00
2019-02-28T01:10:46.130Z,64.07
2019-02-28T01:13:48.026Z,64.24
2019-02-28T01:16:50.218Z,64.39
2019-02-28T01:19:53.887Z,64.52
2019-02-28T01:22:58.568Z,64.47
2019-02-28T01:25:59.642Z,64.78
2019-02-28T01:29:02.668Z,64.45
2019-02-28T01:32:04.839Z,64.40
2019-02-28T01:35:07.677Z,64.09
2019-02-28T01:38:09.618Z,63.85
2019-02-28T01:41:11.886Z,63.71
2019-02-28T01:44:14.183Z,63.43
2019-02-28T01:47:19.873Z,63.42
2019-02-28T01:50:20.513Z,63.44
2019-02-28T01:53:22.399Z,63.38
2019-02-28T01:56:24.274Z,63.94
2019-02-28T01:59:26.158Z,63.91
2019-02-28T02:02:29.295Z,63.64
2019-02-28T02:05:31.178Z,63.24
2019-02-28T02:08:33.140Z,63.03
2019-02-28T02:11:35.039Z,62.93
2019-02-28T02:14:36.891Z,62.94
2019-02-28T02:17:38.792Z,63.02
2019-02-28T02:20:40.770Z,62.91
2019-02-28T02:23:42.710Z,63.00
2019-02-28T02:26:45.239Z,62.96
2019-02-28T02:29:47.857Z,62.87
2019-02-28T02:32:50.534Z,62.81
2019-02-28T02:35:52.407Z,62.71
2019-02-28T02:38:54.317Z,62.73
2019-02-28T02:41:56.194Z,62.52
2019-02-28T02:44:58.099Z,62.37
2019-02-28T02:48:00.061Z,62.15
2019-02-28T02:51:02.040Z,61.91
2019-02-28T02:54:03.945Z,61.66
2019-02-28T02:57:05.822Z,61.38
2019-02-28T03:00:13.683Z,61.29
2019-02-28T03:03:14.922Z,61.24
2019-02-28T03:06:16.817Z,61.26
2019-02-28T03:09:18.772Z,61.40
2019-02-28T03:12:20.657Z,61.68
2019-02-28T03:15:26.918Z,61.87
2019-02-28T03:18:26.343Z,61.91
2019-02-28T03:21:28.359Z,62.06
2019-02-28T03:24:31.267Z,62.04
2019-02-28T03:27:33.178Z,61.91
2019-02-28T03:30:35.140Z,61.70
2019-02-28T03:33:37.029Z,61.58
2019-02-28T03:36:38.927Z,61.33
2019-02-28T03:39:40.842Z,61.18
2019-02-28T03:42:42.818Z,61.01
2019-02-28T03:45:45.433Z,60.78
2019-02-28T03:48:47.317Z,60.66
2019-02-28T03:51:49.301Z,60.66
2019-02-28T03:54:51.191Z,60.78
2019-02-28T03:57:53.452Z,60.92
2019-02-28T04:00:55.417Z,60.86
2019-02-28T04:03:57.291Z,60.91
2019-02-28T04:06:59.150Z,60.90
2019-02-28T04:10:01.215Z,61.26
2019-02-28T04:13:03.077Z,61.60
2019-02-28T04:16:09.267Z,62.08
2019-02-28T04:19:08.776Z,62.01
2019-02-28T04:22:10.770Z,62.05
2019-02-28T04:25:12.644Z,61.81
2019-02-28T04:28:18.670Z,61.71
2019-02-28T04:31:20.203Z,61.65
2019-02-28T04:34:22.371Z,61.50
2019-02-28T04:37:24.275Z,61.30
2019-02-28T04:40:27.000Z,61.11
2019-02-28T04:43:29.694Z,60.68
2019-02-28T04:46:32.564Z,60.23
2019-02-28T04:49:34.905Z,59.82
2019-02-28T04:52:36.913Z,59.63
2019-02-28T04:55:38.838Z,59.27
2019-02-28T04:58:42.012Z,58.89
2019-02-28T05:01:45.209Z,58.54
2019-02-28T05:04:47.781Z,58.42
2019-02-28T05:07:50.523Z,58.34
2019-02-28T05:10:55.631Z,57.98
2019-02-28T05:13:56.483Z,57.94
2019-02-28T05:16:58.434Z,57.60
2019-02-28T05:20:00.319Z,57.54
2019-02-28T05:23:02.930Z,57.34
2019-02-28T05:26:06.193Z,57.17
2019-02-28T05:29:08.111Z,57.09
2019-02-28T05:32:09.998Z,56.74
2019-02-28T05:35:11.917Z,56.60
2019-02-28T05:38:13.832Z,56.43
2019-02-28T05:41:16.036Z,56.36
2019-02-28T05:44:18.312Z,56.10
2019-02-28T05:47:20.264Z,56.07
2019-02-28T05:50:22.172Z,55.79
2019-02-28T05:53:24.153Z,55.26
2019-02-28T05:56:26.108Z,53.92
2019-02-28T05:59:29.810Z,53.41
2019-02-28T06:02:31.695Z,52.53
2019-02-28T06:05:33.677Z,51.85
2019-02-28T06:08:39.050Z,50.74
2019-02-28T06:11:39.584Z,49.01
2019-02-28T06:14:41.471Z,48.54
2019-02-28T06:17:43.413Z,47.46
2019-02-28T06:20:51.154Z,46.71
2019-02-28T06:23:49.333Z,45.54
2019-02-28T06:26:51.240Z,44.69
2019-02-28T06:29:53.151Z,44.32
2019-02-28T06:32:58.082Z,42.92
2019-02-28T06:35:58.893Z,43.20
2019-02-28T06:39:00.831Z,42.54
2019-02-28T06:42:02.963Z,42.14
2019-02-28T06:45:11.115Z,42.57
2019-02-28T06:48:13.186Z,43.14
2019-02-28T06:51:16.773Z,43.32
2019-02-28T06:54:19.036Z,42.56
2019-02-28T06:57:20.953Z,41.27
2019-02-28T07:00:22.898Z,40.89
2019-02-28T07:03:24.958Z,40.23
2019-02-28T07:06:26.992Z,39.76
2019-02-28T07:09:30.439Z,38.51
2019-02-28T07:12:33.159Z,38.51
2019-02-28T07:15:35.304Z,38.60
2019-02-28T07:18:37.306Z,38.27
2019-02-28T07:21:42.851Z,37.98
2019-02-28T07:24:43.133Z,37.88
2019-02-28T07:27:45.048Z,38.14
2019-02-28T07:30:50.302Z,38.33
2019-02-28T07:33:51.437Z,38.33
2019-02-28T07:36:53.562Z,38.03
2019-02-28T07:39:55.617Z,37.14
2019-02-28T07:42:58.540Z,36.42
2019-02-28T07:46:00.500Z,35.77
2019-02-28T07:49:03.826Z,35.13
2019-02-28T07:52:05.728Z,34.87
2019-02-28T07:55:11.355Z,34.38
2019-02-28T07:58:13.301Z,34.34
2019-02-28T08:01:15.469Z,34.07
2019-02-28T08:04:18.568Z,33.71
2019-02-28T08:07:21.283Z,33.67
2019-02-28T08:10:26.151Z,32.76
2019-02-28T08:13:28.222Z,33.47
2019-02-28T08:16:30.727Z,33.75
2019-02-28T08:19:34.710Z,33.28
2019-02-28T08:22:36.703Z,33.13
2019-02-28T08:25:39.615Z,33.11
2019-02-28T08:28:42.601Z,32.96
2019-02-28T08:31:44.560Z,33.23
2019-02-28T08:34:46.924Z,32.74
2019-02-28T08:37:55.380Z,33.86
2019-02-28T08:40:53.063Z,33.71
2019-02-28T08:43:55.022Z,34.15
2019-02-28T08:46:56.914Z,34.31
2019-02-28T08:49:58.839Z,34.23
2019-02-28T08:53:02.543Z,34.48
2019-02-28T08:56:04.515Z,34.49
2019-02-28T08:59:11.770Z,35.50
2019-02-28T09:02:10.674Z,35.64
2019-02-28T09:05:13.685Z,36.28
2019-02-28T09:08:15.717Z,36.43
2019-02-28T09:11:20.778Z,36.76
2019-02-28T09:14:21.724Z,37.20
2019-02-28T09:17:23.657Z,37.55
2019-02-28T09:20:25.712Z,38.15
2019-02-28T09:23:27.849Z,38.62
2019-02-28T09:26:31.944Z,38.23
2019-02-28T09:29:34.142Z,39.25
2019-02-28T09:32:36.033Z,38.57
2019-02-28T09:35:37.932Z,39.19
2019-02-28T09:38:42.345Z,39.48
2019-02-28T09:41:44.015Z,39.03
2019-02-28T09:44:45.930Z,39.20
2019-02-28T09:47:47.913Z,39.49
2019-02-28T09:50:49.963Z,39.33
2019-02-28T09:53:51.906Z,39.28
2019-02-28T09:56:53.924Z,39.01
2019-02-28T09:59:55.909Z,39.00
2019-02-28T10:02:57.793Z,39.30
2019-02-28T10:05:59.696Z,39.00
2019-02-28T10:09:01.633Z,38.59
2019-02-28T10:12:07.846Z,38.33
2019-02-28T10:15:22.227Z,38.98
2019-02-28T10:18:24.153Z,38.49
2019-02-28T10:21:26.060Z,38.11
2019-02-28T10:24:28.378Z,37.86
2019-02-28T10:27:30.647Z,38.34
2019-02-28T10:30:32.817Z,38.81
2019-02-28T10:33:34.807Z,38.22
2019-02-28T10:36:36.875Z,36.82
2019-02-28T10:39:40.250Z,36.52
2019-02-28T10:42:42.691Z,35.96
2019-02-28T10:45:46.100Z,35.91
2019-02-28T10:48:50.975Z,36.60
2019-02-28T10:51:52.459Z,36.43
2019-02-28T10:54:54.537Z,36.14
2019-02-28T10:57:56.577Z,36.16
2019-02-28T11:00:58.439Z,36.04
2019-02-28T11:04:00.488Z,36.10
2019-02-28T11:07:03.126Z,36.56
2019-02-28T11:10:08.000Z,36.29
2019-02-28T11:13:12.341Z,35.78
2019-02-28T11:16:14.484Z,35.40
2019-02-28T11:19:18.560Z,36.52
2019-02-28T11:22:20.284Z,36.30
2019-02-28T11:25:25.364Z,36.37
2019-02-28T11:28:28.304Z,37.24
2019-02-28T11:31:31.251Z,35.91
2019-02-28T11:34:33.212Z,37.12
2019-02-28T11:37:35.424Z,36.73
2019-02-28T11:40:40.481Z,36.67
2019-02-28T11:43:41.384Z,36.34
2019-02-28T11:46:44.593Z,36.78
2019-02-28T11:49:46.496Z,35.37
2019-02-28T11:52:48.595Z,35.14
2019-02-28T11:55:53.297Z,34.68
2019-02-28T11:58:54.583Z,35.32
2019-02-28T12:01:56.500Z,35.62
2019-02-28T12:04:58.482Z,34.58
2019-02-28T12:08:00.469Z,36.14
2019-02-28T12:11:02.902Z,35.24
2019-02-28T12:14:06.330Z,35.48
2019-02-28T12:17:08.660Z,36.11
2019-02-28T12:20:12.595Z,36.45
2019-02-28T12:23:14.557Z,36.19
2019-02-28T12:26:17.819Z,36.86
2019-02-28T12:29:20.350Z,36.58
2019-02-28T12:32:25.365Z,37.04
2019-02-28T12:35:27.387Z,36.31
2019-02-28T12:38:29.316Z,36.03
2019-02-28T12:41:31.271Z,35.43
2019-02-28T12:44:33.234Z,35.82
2019-02-28T12:47:35.208Z,35.25
2019-02-28T12:50:37.168Z,36.12
2019-02-28T12:53:39.107Z,35.02
2019-02-28T12:56:41.100Z,35.64
2019-02-28T12:59:45.832Z,35.52
2019-02-28T13:02:47.205Z,36.69
2019-02-28T13:05:49.595Z,37.55
2019-02-28T13:08:53.454Z,36.54
2019-02-28T13:11:55.624Z,37.64
2019-02-28T13:14:57.727Z,37.29
2019-02-28T13:18:07.312Z,37.82
2019-02-28T13:21:10.708Z,38.34
2019-02-28T13:24:10.708Z,38.68
2019-02-28T13:27:13.202Z,39.40
2019-02-28T13:30:23.339Z,39.60
2019-02-28T13:33:26.627Z,39.21
2019-02-28T13:36:28.681Z,39.10
2019-02-28T13:39:31.603Z,39.65
2019-02-28T13:42:36.350Z,39.70
2019-02-28T13:45:38.314Z,39.08
2019-02-28T13:48:40.260Z,38.66
2019-02-28T13:51:42.751Z,39.39
2019-02-28T13:54:44.956Z,39.61
2019-02-28T13:57:47.153Z,38.31
2019-02-28T14:00:50.269Z,38.11
2019-02-28T14:03:52.170Z,39.20
2019-02-28T14:06:55.788Z,39.44
2019-02-28T14:09:59.154Z,38.55
2019-02-28T14:13:01.257Z,39.06
2019-02-28T14:16:03.513Z,39.91
2019-02-28T14:19:05.515Z,39.07
2019-02-28T14:22:08.645Z,38.56
2019-02-28T14:25:11.825Z,38.58
2019-02-28T14:28:13.965Z,39.25
2019-02-28T14:31:16.080Z,39.08
2019-02-28T14:34:20.845Z,39.22
2019-02-28T14:37:22.966Z,39.29
2019-02-28T14:40:25.284Z,39.70
2019-02-28T14:43:28.495Z,39.92
2019-02-28T14:46:30.454Z,40.87
2019-02-28T14:49:33.241Z,41.32
2019-02-28T14:52:39.415Z,41.61
2019-02-28T14:55:40.783Z,41.56
2019-02-28T14:58:42.702Z,41.78
2019-02-28T15:01:44.792Z,42.29
2019-02-28T15:04:46.784Z,42.36
2019-02-28T15:07:50.029Z,43.26
2019-02-28T15:10:53.258Z,43.47
2019-02-28T15:13:55.747Z,43.93
2019-02-28T15:17:02.031Z,44.09
2019-02-28T15:20:04.941Z,43.49
2019-02-28T15:23:07.097Z,43.41
2019-02-28T15:26:09.190Z,43.66
2019-02-28T15:29:11.341Z,43.91
2019-02-28T15:32:14.231Z,44.00
2019-02-28T15:35:19.646Z,44.20
2019-02-28T15:38:21.765Z,44.36
2019-02-28T15:41:23.721Z,44.62
2019-02-28T15:44:29.129Z,44.58
2019-02-28T15:47:30.447Z,44.80
2019-02-28T15:50:32.586Z,44.93
2019-02-28T15:53:34.831Z,45.05
2019-02-28T15:56:38.716Z,45.21
2019-02-28T15:59:40.824Z,45.45
2019-02-28T16:02:43.119Z,45.66
2019-02-28T16:05:46.212Z,45.84
2019-02-28T16:08:49.015Z,45.79
2019-02-28T16:11:51.086Z,45.97
2019-02-28T16:14:55.278Z,46.02
2019-02-28T16:17:57.552Z,46.08
2019-02-28T16:20:59.710Z,46.42
2019-02-28T16:24:02.054Z,46.52
2019-02-28T16:27:06.618Z,46.53
2019-02-28T16:30:12.061Z,46.71
2019-02-28T16:33:14.522Z,46.65
2019-02-28T16:36:18.884Z,46.93
2019-02-28T16:39:20.836Z,47.08
2019-02-28T16:42:24.796Z,47.41
2019-02-28T16:45:32.259Z,47.41
2019-02-28T16:48:36.493Z,47.79
2019-02-28T16:51:38.667Z,48.18
2019-02-28T16:54:40.675Z,48.23
2019-02-28T16:57:43.608Z,48.43
2019-02-28T17:00:46.525Z,48.51
2019-02-28T17:03:50.574Z,48.82
2019-02-28T17:06:52.539Z,48.65
2019-02-28T17:09:56.223Z,48.89
2019-02-28T17:13:15.375Z,49.14
2019-02-28T17:16:19.522Z,49.16
2019-02-28T17:19:21.457Z,49.22
2019-02-28T17:22:26.909Z,49.38
2019-02-28T17:25:29.421Z,49.54
2019-02-28T17:28:35.756Z,49.66
2019-02-28T17:31:40.684Z,49.66
2019-02-28T17:34:42.939Z,49.86
2019-02-28T17:37:46.160Z,49.86
2019-02-28T17:40:48.083Z,49.89
2019-02-28T17:44:24.234Z,49.79
2019-02-28T17:47:38.566Z,49.73
2019-02-28T17:50:44.072Z,49.78
2019-02-28T17:54:01.139Z,49.88
2019-02-28T17:57:21.241Z,50.14
2019-02-28T18:00:41.102Z,50.03
2019-02-28T18:03:50.254Z,50.06
2019-02-28T18:07:32.825Z,50.32
2019-02-28T18:10:39.658Z,50.31
2019-02-28T18:13:52.190Z,50.41
2019-02-28T18:17:17.364Z,50.46
2019-02-28T18:20:32.231Z,50.35
2019-02-28T18:24:04.185Z,50.40
2019-02-28T18:27:26.753Z,50.51
2019-02-28T18:31:09.368Z,50.57
2019-02-28T18:34:12.561Z,50.80
2019-02-28T18:37:14.766Z,50.58
2019-02-28T18:40:17.694Z,50.79
2019-02-28T18:43:19.689Z,50.90
2019-02-28T18:46:23.309Z,51.18
2019-02-28T18:49:26.585Z,51.41
2019-02-28T18:52:29.238Z,52.09
2019-02-28T18:55:35.115Z,52.31
2019-02-28T18:58:37.129Z,52.55
2019-02-28T19:01:39.102Z,52.67
2019-02-28T19:04:41.089Z,53.16
2019-02-28T19:07:48.287Z,53.42
2019-02-28T19:10:52.625Z,53.51
2019-02-28T19:13:54.532Z,53.53
2019-02-28T19:16:58.024Z,53.97
2019-02-28T19:19:59.966Z,54.25
2019-02-28T19:23:02.154Z,54.74
2019-02-28T19:26:04.316Z,54.92
2019-02-28T19:29:06.320Z,55.20
2019-02-28T19:32:09.648Z,55.57
2019-02-28T19:35:11.579Z,55.77
2019-02-28T19:38:15.600Z,55.69
2019-02-28T19:41:17.841Z,55.74
2019-02-28T19:44:21.361Z,55.68
2019-02-28T19:47:23.276Z,55.64
2019-02-28T19:50:28.396Z,55.92
2019-02-28T19:53:32.112Z,56.05
2019-02-28T19:56:34.056Z,56.18
2019-02-28T19:59:38.205Z,56.10
2019-02-28T20:02:40.129Z,56.24
2019-02-28T20:05:44.305Z,56.12
2019-02-28T20:08:48.254Z,56.40
2019-02-28T20:11:54.284Z,56.44
2019-02-28T20:14:56.278Z,56.45
2019-02-28T20:18:01.607Z,56.36
2019-02-28T20:21:05.747Z,56.18
2019-02-28T20:24:09.476Z,56.33
2019-02-28T20:27:12.215Z,56.21
2019-02-28T20:30:17.075Z,56.23
2019-02-28T20:33:19.355Z,56.16
2019-02-28T20:36:22.660Z,56.08
2019-02-28T20:39:26.075Z,56.33
2019-02-28T20:42:28.394Z,56.19
2019-02-28T20:45:33.857Z,56.07
2019-02-28T20:48:35.798Z,55.81
2019-02-28T20:51:40.146Z,55.75
2019-02-28T20:54:42.354Z,55.98
2019-02-28T20:57:44.399Z,55.87
2019-02-28T21:00:46.488Z,55.78
2019-02-28T21:03:48.441Z,55.56
2019-02-28T21:06:50.467Z,55.53
2019-02-28T21:09:53.664Z,55.43
2019-02-28T21:12:55.603Z,55.37
2019-02-28T21:15:57.841Z,55.44
2019-02-28T21:18:59.792Z,55.55
2019-02-28T21:22:01.680Z,55.53
2019-02-28T21:25:07.151Z,55.50
2019-02-28T21:28:10.391Z,55.88
2019-02-28T21:31:13.151Z,56.53
2019-02-28T21:34:15.036Z,57.14
2019-02-28T21:37:20.310Z,58.02
2019-02-28T21:40:23.804Z,58.16
2019-02-28T21:43:25.723Z,58.22
2019-02-28T21:46:27.747Z,59.12
2019-02-28T21:49:29.592Z,58.46
2019-02-28T21:52:31.551Z,58.59
2019-02-28T21:55:35.678Z,58.47
2019-02-28T21:58:38.286Z,58.59
2019-02-28T22:01:40.606Z,58.64
2019-02-28T22:04:43.572Z,58.84
2019-02-28T22:07:45.418Z,58.79
2019-02-28T22:10:47.509Z,58.79
2019-02-28T22:13:49.376Z,58.87
2019-02-28T22:16:51.318Z,58.83
2019-02-28T22:19:53.380Z,58.82
2019-02-28T22:22:55.287Z,58.83
2019-02-28T22:25:57.163Z,58.67
2019-02-28T22:28:59.131Z,58.87
2019-02-28T22:32:05.965Z,58.95
2019-02-28T22:35:09.818Z,58.92
2019-02-28T22:38:11.747Z,58.76
2019-02-28T22:41:14.847Z,58.84
2019-02-28T22:44:16.796Z,59.07
2019-02-28T22:47:18.731Z,59.02
2019-02-28T22:50:20.681Z,59.10
2019-02-28T22:53:22.529Z,59.06
2019-02-28T22:56:24.478Z,59.05
2019-02-28T22:59:26.400Z,58.99
2019-02-28T23:02:29.015Z,58.99
2019-02-28T23:05:30.942Z,59.25
2019-02-28T23:08:32.875Z,59.23
2019-02-28T23:11:34.858Z,59.13
2019-02-28T23:14:36.752Z,58.96
2019-02-28T23:17:38.732Z,59.00
2019-02-28T23:20:40.639Z,59.40
2019-02-28T23:23:42.615Z,59.65
2019-02-28T23:27:07.822Z,59.47
2019-02-28T23:30:22.462Z,59.37
2019-02-28T23:33:24.352Z,59.45
2019-02-28T23:36:26.310Z,59.55
2019-02-28T23:39:28.267Z,59.48
2019-02-28T23:42:30.352Z,59.57
2019-02-28T23:45:32.242Z,59.68
2019-02-28T23:48:34.190Z,59.88
2019-02-28T23:51:36.143Z,60.05
2019-02-28T23:54:38.128Z,60.15
2019-02-28T23:57:40.070Z,60.00
